createdAt,value
2022-08-26T00:00:25.041Z,855.83
2022-08-26T00:01:29.652Z,855.80
2022-08-26T00:02:26.051Z,855.81
2022-08-26T00:03:25.025Z,855.80
2022-08-26T00:04:25.485Z,855.80
2022-08-26T00:05:24.987Z,855.77
2022-08-26T00:06:24.982Z,855.78
2022-08-26T00:07:24.994Z,855.73
2022-08-26T00:08:24.954Z,855.76
2022-08-26T00:09:25.091Z,855.73
2022-08-26T00:10:25.898Z,855.70
2022-08-26T00:11:26.957Z,855.70
2022-08-26T00:12:31.505Z,855.72
2022-08-26T00:13:25.915Z,855.70
2022-08-26T00:14:28.425Z,855.65
2022-08-26T00:15:25.892Z,855.70
2022-08-26T00:16:24.997Z,855.67
2022-08-26T00:17:24.857Z,855.68
2022-08-26T00:18:24.843Z,855.69
2022-08-26T00:19:24.860Z,855.70
2022-08-26T00:20:24.834Z,855.69
2022-08-26T00:21:24.813Z,855.68
2022-08-26T00:22:24.800Z,855.67
2022-08-26T00:23:24.794Z,855.67
2022-08-26T00:24:24.784Z,855.65
2022-08-26T00:25:24.782Z,855.65
2022-08-26T00:26:24.769Z,855.65
2022-08-26T00:27:24.766Z,855.63
2022-08-26T00:28:24.739Z,855.63
2022-08-26T00:29:24.731Z,855.64
2022-08-26T00:30:24.721Z,855.60
2022-08-26T00:31:24.769Z,855.59
2022-08-26T00:32:24.691Z,855.57
2022-08-26T00:33:24.697Z,855.56
2022-08-26T00:34:24.671Z,855.62
2022-08-26T00:35:24.665Z,855.60
2022-08-26T00:36:24.680Z,855.60
2022-08-26T00:37:24.668Z,855.61
2022-08-26T00:38:24.736Z,855.63
2022-08-26T00:39:24.629Z,855.63
2022-08-26T00:40:24.719Z,855.64
2022-08-26T00:41:24.630Z,855.62
2022-08-26T00:42:24.589Z,855.60
2022-08-26T00:43:24.597Z,855.59
2022-08-26T00:44:24.574Z,855.61
2022-08-26T00:45:24.607Z,855.64
2022-08-26T00:46:24.556Z,855.59
2022-08-26T00:47:24.553Z,855.58
2022-08-26T00:48:24.519Z,855.58
2022-08-26T00:49:24.545Z,855.58
2022-08-26T00:50:24.516Z,855.57
2022-08-26T00:51:24.493Z,855.61
2022-08-26T00:52:25.471Z,855.59
2022-08-26T00:53:27.870Z,855.60
2022-08-26T00:54:24.453Z,855.62
2022-08-26T00:55:24.547Z,855.62
2022-08-26T00:56:24.440Z,855.61
2022-08-26T00:57:24.420Z,855.58
2022-08-26T00:58:24.411Z,855.61
2022-08-26T00:59:24.399Z,855.59
2022-08-26T01:00:24.404Z,855.57
2022-08-26T01:01:24.453Z,855.53
2022-08-26T01:02:24.463Z,855.55
2022-08-26T01:03:24.366Z,855.55
2022-08-26T01:04:24.353Z,855.52
2022-08-26T01:05:24.332Z,855.51
2022-08-26T01:06:24.318Z,855.47
2022-08-26T01:07:24.345Z,855.55
2022-08-26T01:08:24.428Z,855.48
2022-08-26T01:09:24.303Z,855.46
2022-08-26T01:10:24.282Z,855.48
2022-08-26T01:11:24.270Z,855.46
2022-08-26T01:12:24.257Z,855.45
2022-08-26T01:13:24.276Z,855.44
2022-08-26T01:14:24.234Z,855.46
2022-08-26T01:15:24.228Z,855.39
2022-08-26T01:16:24.250Z,855.42
2022-08-26T01:17:24.201Z,855.38
2022-08-26T01:18:24.197Z,855.43
2022-08-26T01:19:24.188Z,855.38
2022-08-26T01:20:24.166Z,855.42
2022-08-26T01:21:24.170Z,855.44
2022-08-26T01:22:26.716Z,855.49
2022-08-26T01:23:24.135Z,855.44
2022-08-26T01:24:24.121Z,855.43
2022-08-26T01:25:24.135Z,855.45
2022-08-26T01:26:24.105Z,855.40
2022-08-26T01:27:24.092Z,855.40
2022-08-26T01:28:24.084Z,855.40
2022-08-26T01:29:24.069Z,855.37
2022-08-26T01:30:24.066Z,855.36
2022-08-26T01:31:24.119Z,855.37
2022-08-26T01:32:24.036Z,855.35
2022-08-26T01:33:24.033Z,855.35
2022-08-26T01:34:24.030Z,855.35
2022-08-26T01:35:24.004Z,855.37
2022-08-26T01:36:23.991Z,855.32
2022-08-26T01:37:24.012Z,855.36
2022-08-26T01:38:23.980Z,855.31
2022-08-26T01:39:23.967Z,855.32
2022-08-26T01:40:24.137Z,855.29
2022-08-26T01:41:27.583Z,855.31
2022-08-26T01:42:24.921Z,855.31
2022-08-26T01:43:23.932Z,855.30
2022-08-26T01:44:23.904Z,855.32
2022-08-26T01:45:23.897Z,855.31
2022-08-26T01:46:23.905Z,855.29
2022-08-26T01:47:23.870Z,855.30
2022-08-26T01:48:23.873Z,855.29
2022-08-26T01:49:23.903Z,855.25
2022-08-26T01:50:28.057Z,855.33
2022-08-26T01:51:24.841Z,855.31
2022-08-26T01:52:23.816Z,855.29
2022-08-26T01:53:23.821Z,855.31
2022-08-26T01:54:23.809Z,855.27
2022-08-26T01:55:33.222Z,855.29
2022-08-26T01:56:24.780Z,855.28
2022-08-26T01:57:24.761Z,855.35
2022-08-26T01:58:23.762Z,855.31
2022-08-26T01:59:23.739Z,855.38
2022-08-26T02:00:23.742Z,855.37
2022-08-26T02:01:23.818Z,855.35
2022-08-26T02:02:24.704Z,855.36
2022-08-26T02:03:23.697Z,855.38
2022-08-26T02:04:23.768Z,855.33
2022-08-26T02:05:23.684Z,855.37
2022-08-26T02:06:23.665Z,855.42
2022-08-26T02:07:23.689Z,855.41
2022-08-26T02:08:25.295Z,855.43
2022-08-26T02:09:23.628Z,855.47
2022-08-26T02:10:23.623Z,855.43
2022-08-26T02:11:23.675Z,855.46
2022-08-26T02:12:23.595Z,855.48
2022-08-26T02:13:23.603Z,855.50
2022-08-26T02:14:23.584Z,855.48
2022-08-26T02:15:23.563Z,855.49
2022-08-26T02:16:23.607Z,855.53
2022-08-26T02:17:23.543Z,855.52
2022-08-26T02:18:23.537Z,855.51
2022-08-26T02:19:23.549Z,855.49
2022-08-26T02:20:23.547Z,855.52
2022-08-26T02:21:24.963Z,855.51
2022-08-26T02:22:24.677Z,855.51
2022-08-26T02:23:24.410Z,855.46
2022-08-26T02:24:23.511Z,855.47
2022-08-26T02:25:23.458Z,855.43
2022-08-26T02:26:23.485Z,855.46
2022-08-26T02:27:23.432Z,855.42
2022-08-26T02:28:26.605Z,855.45
2022-08-26T02:29:23.424Z,855.44
2022-08-26T02:30:23.402Z,855.38
2022-08-26T02:31:23.412Z,855.41
2022-08-26T02:32:23.408Z,855.40
2022-08-26T02:33:23.416Z,855.37
2022-08-26T02:34:23.353Z,855.34
2022-08-26T02:35:23.367Z,855.31
2022-08-26T02:36:23.332Z,855.31
2022-08-26T02:37:23.326Z,855.28
2022-08-26T02:38:23.336Z,855.28
2022-08-26T02:39:23.319Z,855.27
2022-08-26T02:40:23.299Z,855.26
2022-08-26T02:41:23.283Z,855.26
2022-08-26T02:42:23.285Z,855.27
2022-08-26T02:43:31.376Z,855.26
2022-08-26T02:44:24.302Z,855.28
2022-08-26T02:45:23.799Z,855.30
2022-08-26T02:46:29.839Z,855.23
2022-08-26T02:47:24.889Z,855.29
2022-08-26T02:48:23.199Z,855.27
2022-08-26T02:49:23.191Z,855.24
2022-08-26T02:50:23.204Z,855.25
2022-08-26T02:51:23.177Z,855.28
2022-08-26T02:52:23.173Z,855.23
2022-08-26T02:53:25.415Z,855.29
2022-08-26T02:54:23.138Z,855.22
2022-08-26T02:55:24.684Z,855.27
2022-08-26T02:56:23.167Z,855.19
2022-08-26T02:57:23.104Z,855.19
2022-08-26T02:58:23.109Z,855.19
2022-08-26T02:59:24.401Z,855.18
2022-08-26T03:00:23.822Z,855.15
2022-08-26T03:01:23.136Z,855.15
2022-08-26T03:02:23.174Z,855.12
2022-08-26T03:03:23.714Z,855.14
2022-08-26T03:04:23.043Z,855.17
2022-08-26T03:05:24.052Z,855.13
2022-08-26T03:06:23.008Z,855.10
2022-08-26T03:07:22.992Z,855.10
2022-08-26T03:08:23.013Z,855.09
2022-08-26T03:09:22.976Z,855.08
2022-08-26T03:10:22.971Z,855.11
2022-08-26T03:11:22.957Z,855.10
2022-08-26T03:12:22.938Z,855.10
2022-08-26T03:13:22.924Z,855.14
2022-08-26T03:14:22.935Z,855.10
2022-08-26T03:15:22.907Z,855.09
2022-08-26T03:16:22.961Z,855.14
2022-08-26T03:17:22.985Z,855.16
2022-08-26T03:18:22.872Z,855.15
2022-08-26T03:19:22.876Z,855.13
2022-08-26T03:20:22.880Z,855.15
2022-08-26T03:21:22.859Z,855.14
2022-08-26T03:22:22.831Z,855.11
2022-08-26T03:23:22.818Z,855.10
2022-08-26T03:24:22.813Z,855.09
2022-08-26T03:25:22.805Z,855.09
2022-08-26T03:26:22.789Z,855.08
2022-08-26T03:27:22.800Z,855.11
2022-08-26T03:28:22.771Z,855.07
2022-08-26T03:29:22.750Z,855.10
2022-08-26T03:30:22.769Z,855.08
2022-08-26T03:31:24.653Z,855.06
2022-08-26T03:32:22.717Z,855.09
2022-08-26T03:33:22.735Z,855.10
2022-08-26T03:34:22.696Z,855.11
2022-08-26T03:35:22.685Z,855.09
2022-08-26T03:36:22.688Z,855.07
2022-08-26T03:37:22.663Z,855.06
2022-08-26T03:38:22.654Z,855.03
2022-08-26T03:39:22.658Z,854.98
2022-08-26T03:40:22.711Z,854.99
2022-08-26T03:41:22.617Z,854.96
2022-08-26T03:42:22.620Z,854.95
2022-08-26T03:43:22.603Z,854.93
2022-08-26T03:44:22.600Z,854.94
2022-08-26T03:45:22.590Z,854.95
2022-08-26T03:46:22.593Z,854.93
2022-08-26T03:47:22.553Z,854.91
2022-08-26T03:48:22.543Z,854.93
2022-08-26T03:49:22.544Z,854.95
2022-08-26T03:50:23.017Z,854.94
2022-08-26T03:51:22.528Z,854.96
2022-08-26T03:52:22.521Z,855.00
2022-08-26T03:53:22.598Z,854.99
2022-08-26T03:54:22.481Z,855.04
2022-08-26T03:55:23.695Z,854.99
2022-08-26T03:56:22.463Z,855.04
2022-08-26T03:57:22.463Z,855.04
2022-08-26T03:58:22.437Z,855.02
2022-08-26T03:59:22.448Z,855.04
2022-08-26T04:00:22.417Z,855.01
2022-08-26T04:01:22.434Z,855.00
2022-08-26T04:02:22.393Z,854.99
2022-08-26T04:03:22.444Z,854.95
2022-08-26T04:04:22.656Z,854.94
2022-08-26T04:05:22.372Z,854.94
2022-08-26T04:06:22.355Z,854.89
2022-08-26T04:07:22.335Z,854.90
2022-08-26T04:08:22.324Z,854.88
2022-08-26T04:09:22.318Z,854.87
2022-08-26T04:10:22.358Z,854.88
2022-08-26T04:11:23.290Z,854.86
2022-08-26T04:12:22.283Z,854.82
2022-08-26T04:13:22.270Z,854.82
2022-08-26T04:14:22.264Z,854.78
2022-08-26T04:15:22.250Z,854.75
2022-08-26T04:16:22.329Z,854.75
2022-08-26T04:17:24.901Z,854.78
2022-08-26T04:18:22.218Z,854.78
2022-08-26T04:19:22.209Z,854.80
2022-08-26T04:20:22.198Z,854.76
2022-08-26T04:21:22.185Z,854.80
2022-08-26T04:22:24.038Z,854.78
2022-08-26T04:23:22.177Z,854.69
2022-08-26T04:24:22.162Z,854.72
2022-08-26T04:25:22.141Z,854.72
2022-08-26T04:26:22.152Z,854.74
2022-08-26T04:27:22.124Z,854.72
2022-08-26T04:28:22.131Z,854.69
2022-08-26T04:29:22.116Z,854.71
2022-08-26T04:30:22.089Z,854.69
2022-08-26T04:31:22.142Z,854.72
2022-08-26T04:32:22.075Z,854.76
2022-08-26T04:33:32.431Z,854.69
2022-08-26T04:34:23.062Z,854.67
2022-08-26T04:35:25.666Z,854.68
2022-08-26T04:36:22.020Z,854.65
2022-08-26T04:37:22.006Z,854.70
2022-08-26T04:38:22.004Z,854.71
2022-08-26T04:39:21.989Z,854.68
2022-08-26T04:40:22.093Z,854.65
2022-08-26T04:41:21.996Z,854.64
2022-08-26T04:42:23.307Z,854.64
2022-08-26T04:43:21.949Z,854.68
2022-08-26T04:44:21.933Z,854.67
2022-08-26T04:45:22.610Z,854.69
2022-08-26T04:46:22.036Z,854.73
2022-08-26T04:47:21.914Z,854.75
2022-08-26T04:48:21.894Z,854.70
2022-08-26T04:49:21.877Z,854.71
2022-08-26T04:50:21.868Z,854.74
2022-08-26T04:51:21.861Z,854.77
2022-08-26T04:52:21.863Z,854.74
2022-08-26T04:53:21.864Z,854.76
2022-08-26T04:54:21.826Z,854.78
2022-08-26T04:55:21.819Z,854.81
2022-08-26T04:56:22.808Z,854.79
2022-08-26T04:57:21.795Z,854.79
2022-08-26T04:58:21.808Z,854.81
2022-08-26T04:59:21.792Z,854.80
2022-08-26T05:00:21.765Z,854.80
2022-08-26T05:01:21.776Z,854.80
2022-08-26T05:02:21.738Z,854.80
2022-08-26T05:03:21.727Z,854.79
2022-08-26T05:04:21.761Z,854.84
2022-08-26T05:05:21.710Z,854.88
2022-08-26T05:06:22.016Z,854.84
2022-08-26T05:07:21.681Z,854.89
2022-08-26T05:08:21.739Z,854.91
2022-08-26T05:09:21.664Z,854.92
2022-08-26T05:10:21.667Z,854.94
2022-08-26T05:11:22.120Z,854.98
2022-08-26T05:12:21.634Z,854.99
2022-08-26T05:13:21.638Z,855.02
2022-08-26T05:14:21.614Z,854.97
2022-08-26T05:15:21.592Z,854.99
2022-08-26T05:16:21.670Z,854.99
2022-08-26T05:17:21.569Z,855.00
2022-08-26T05:18:22.810Z,854.95
2022-08-26T05:19:21.574Z,854.92
2022-08-26T05:20:25.605Z,854.96
2022-08-26T05:21:21.532Z,854.94
2022-08-26T05:22:21.537Z,854.95
2022-08-26T05:23:21.506Z,854.98
2022-08-26T05:24:21.498Z,854.99
2022-08-26T05:25:21.515Z,854.97
2022-08-26T05:26:23.134Z,854.93
2022-08-26T05:27:21.461Z,854.95
2022-08-26T05:28:21.476Z,854.92
2022-08-26T05:29:21.448Z,854.96
2022-08-26T05:30:21.436Z,854.96
2022-08-26T05:31:21.464Z,854.95
2022-08-26T05:32:21.433Z,854.97
2022-08-26T05:33:21.398Z,854.95
2022-08-26T05:34:21.397Z,854.94
2022-08-26T05:35:21.380Z,854.93
2022-08-26T05:36:21.366Z,854.95
2022-08-26T05:37:21.382Z,854.95
2022-08-26T05:38:21.347Z,854.92
2022-08-26T05:39:21.347Z,854.95
2022-08-26T05:40:21.403Z,854.92
2022-08-26T05:41:21.467Z,854.89
2022-08-26T05:42:21.304Z,854.92
2022-08-26T05:43:21.314Z,854.90
2022-08-26T05:44:21.277Z,854.87
2022-08-26T05:45:21.267Z,854.91
2022-08-26T05:46:21.309Z,854.87
2022-08-26T05:47:21.257Z,854.88
2022-08-26T05:48:22.781Z,854.91
2022-08-26T05:49:22.514Z,854.87
2022-08-26T05:50:22.217Z,854.94
2022-08-26T05:51:25.390Z,854.90
2022-08-26T05:52:21.191Z,854.89
2022-08-26T05:53:21.178Z,854.90
2022-08-26T05:54:21.747Z,854.91
2022-08-26T05:55:21.174Z,854.86
2022-08-26T05:56:21.149Z,854.91
2022-08-26T05:57:21.136Z,854.93
2022-08-26T05:58:21.126Z,854.93
2022-08-26T05:59:24.289Z,854.99
2022-08-26T06:00:21.116Z,854.98
2022-08-26T06:01:21.486Z,855.00
2022-08-26T06:02:21.156Z,855.02
2022-08-26T06:03:21.070Z,855.03
2022-08-26T06:04:21.059Z,855.05
2022-08-26T06:05:21.048Z,855.01
2022-08-26T06:06:27.520Z,854.98
2022-08-26T06:07:22.143Z,855.01
2022-08-26T06:08:21.025Z,855.06
2022-08-26T06:09:21.011Z,855.03
2022-08-26T06:10:32.198Z,855.01
2022-08-26T06:11:21.985Z,855.01
2022-08-26T06:12:20.975Z,855.02
2022-08-26T06:13:21.027Z,855.01
2022-08-26T06:14:20.966Z,855.07
2022-08-26T06:15:20.942Z,855.06
2022-08-26T06:16:21.005Z,855.06
2022-08-26T06:17:20.923Z,855.07
2022-08-26T06:18:20.918Z,855.15
2022-08-26T06:19:20.923Z,855.12
2022-08-26T06:20:20.888Z,855.13
2022-08-26T06:21:20.872Z,855.13
2022-08-26T06:22:23.268Z,855.08
2022-08-26T06:23:20.868Z,855.09
2022-08-26T06:24:20.883Z,855.07
2022-08-26T06:25:21.854Z,855.09
2022-08-26T06:26:20.817Z,855.08
2022-08-26T06:27:20.805Z,855.11
2022-08-26T06:28:20.804Z,855.14
2022-08-26T06:29:24.451Z,855.07
2022-08-26T06:30:20.785Z,855.13
2022-08-26T06:31:20.870Z,855.10
2022-08-26T06:32:20.760Z,855.11
2022-08-26T06:33:20.755Z,855.09
2022-08-26T06:34:20.731Z,855.10
2022-08-26T06:35:20.719Z,855.09
2022-08-26T06:36:20.721Z,855.05
2022-08-26T06:37:20.721Z,855.07
2022-08-26T06:38:20.691Z,855.10
2022-08-26T06:39:20.679Z,855.10
2022-08-26T06:40:20.710Z,855.06
2022-08-26T06:41:20.669Z,855.10
2022-08-26T06:42:20.658Z,855.06
2022-08-26T06:43:20.658Z,855.10
2022-08-26T06:44:20.953Z,855.07
2022-08-26T06:45:20.648Z,855.09
2022-08-26T06:46:20.643Z,855.07
2022-08-26T06:47:20.587Z,855.07
2022-08-26T06:48:20.577Z,855.10
2022-08-26T06:49:27.147Z,855.07
2022-08-26T06:50:21.573Z,855.08
2022-08-26T06:51:20.542Z,855.11
2022-08-26T06:52:24.377Z,855.04
2022-08-26T06:53:20.538Z,855.11
2022-08-26T06:54:20.515Z,855.10
2022-08-26T06:55:20.505Z,855.09
2022-08-26T06:56:21.517Z,855.12
2022-08-26T06:57:20.490Z,855.07
2022-08-26T06:58:20.471Z,855.09
2022-08-26T06:59:20.456Z,855.07
2022-08-26T07:00:20.450Z,855.07
2022-08-26T07:01:20.532Z,855.08
2022-08-26T07:02:20.760Z,855.08
2022-08-26T07:03:20.429Z,855.07
2022-08-26T07:04:22.459Z,855.03
2022-08-26T07:05:20.391Z,855.00
2022-08-26T07:06:20.386Z,855.03
2022-08-26T07:07:21.981Z,855.02
2022-08-26T07:08:20.392Z,854.90
2022-08-26T07:09:20.528Z,854.92
2022-08-26T07:10:20.337Z,854.95
2022-08-26T07:11:20.325Z,854.92
2022-08-26T07:12:20.313Z,854.96
2022-08-26T07:13:29.939Z,854.89
2022-08-26T07:14:21.940Z,854.96
2022-08-26T07:15:20.288Z,854.94
2022-08-26T07:16:21.307Z,854.96
2022-08-26T07:17:20.398Z,854.97
2022-08-26T07:18:20.253Z,854.97
2022-08-26T07:19:29.861Z,854.94
2022-08-26T07:20:21.261Z,854.96
2022-08-26T07:21:20.219Z,854.95
2022-08-26T07:22:20.319Z,854.92
2022-08-26T07:23:20.207Z,854.97
2022-08-26T07:24:20.199Z,854.92
2022-08-26T07:25:20.183Z,854.93
2022-08-26T07:26:20.160Z,854.98
2022-08-26T07:27:20.157Z,854.95
2022-08-26T07:28:20.198Z,854.98
2022-08-26T07:29:20.160Z,855.01
2022-08-26T07:30:20.130Z,855.05
2022-08-26T07:31:20.163Z,855.05
2022-08-26T07:32:20.092Z,855.04
2022-08-26T07:33:20.233Z,855.05
2022-08-26T07:34:20.074Z,855.00
2022-08-26T07:35:20.071Z,855.01
2022-08-26T07:36:20.051Z,855.01
2022-08-26T07:37:20.043Z,855.10
2022-08-26T07:38:20.031Z,855.03
2022-08-26T07:39:20.146Z,855.05
2022-08-26T07:40:20.049Z,855.03
2022-08-26T07:41:20.094Z,855.04
2022-08-26T07:42:19.989Z,855.05
2022-08-26T07:43:19.976Z,855.00
2022-08-26T07:44:19.982Z,855.03
2022-08-26T07:45:19.970Z,855.06
2022-08-26T07:46:20.841Z,855.02
2022-08-26T07:47:25.802Z,855.00
2022-08-26T07:48:21.429Z,855.08
2022-08-26T07:49:20.043Z,855.08
2022-08-26T07:50:19.938Z,855.05
2022-08-26T07:51:19.890Z,855.04
2022-08-26T07:52:23.938Z,855.05
2022-08-26T07:53:20.880Z,855.04
2022-08-26T07:54:19.871Z,855.01
2022-08-26T07:55:19.847Z,855.01
2022-08-26T07:56:19.835Z,854.99
2022-08-26T07:57:19.826Z,854.96
2022-08-26T07:58:19.829Z,854.99
2022-08-26T07:59:19.819Z,854.98
2022-08-26T08:00:19.859Z,854.99
2022-08-26T08:01:19.858Z,854.95
2022-08-26T08:02:19.825Z,854.99
2022-08-26T08:03:19.765Z,854.98
2022-08-26T08:04:25.582Z,854.93
2022-08-26T08:05:20.774Z,854.95
2022-08-26T08:06:19.742Z,854.92
2022-08-26T08:07:19.737Z,854.94
2022-08-26T08:08:27.104Z,854.92
2022-08-26T08:09:20.697Z,854.88
2022-08-26T08:10:20.753Z,854.87
2022-08-26T08:11:19.696Z,854.88
2022-08-26T08:12:19.663Z,854.86
2022-08-26T08:13:19.665Z,854.89
2022-08-26T08:14:22.042Z,854.83
2022-08-26T08:15:19.633Z,854.84
2022-08-26T08:16:19.705Z,854.84
2022-08-26T08:17:19.615Z,854.82
2022-08-26T08:18:20.398Z,854.80
2022-08-26T08:19:19.599Z,854.82
2022-08-26T08:20:19.659Z,854.79
2022-08-26T08:21:21.684Z,854.81
2022-08-26T08:22:19.912Z,854.76
2022-08-26T08:23:19.545Z,854.76
2022-08-26T08:24:19.537Z,854.78
2022-08-26T08:25:19.540Z,854.77
2022-08-26T08:26:19.509Z,854.79
2022-08-26T08:27:23.490Z,854.77
2022-08-26T08:28:19.488Z,854.76
2022-08-26T08:29:19.500Z,854.74
2022-08-26T08:30:22.639Z,854.77
2022-08-26T08:31:38.533Z,854.75
2022-08-26T08:32:20.449Z,854.75
2022-08-26T08:33:19.488Z,854.78
2022-08-26T08:34:19.424Z,854.73
2022-08-26T08:35:19.426Z,854.76
2022-08-26T08:36:20.473Z,854.78
2022-08-26T08:37:19.390Z,854.80
2022-08-26T08:38:19.414Z,854.83
2022-08-26T08:39:19.379Z,854.76
2022-08-26T08:40:19.478Z,854.73
2022-08-26T08:41:19.348Z,854.73
2022-08-26T08:42:19.340Z,854.72
2022-08-26T08:43:19.333Z,854.74
2022-08-26T08:44:19.380Z,854.73
2022-08-26T08:45:19.310Z,854.76
2022-08-26T08:46:19.348Z,854.76
2022-08-26T08:47:19.290Z,854.72
2022-08-26T08:48:19.295Z,854.74
2022-08-26T08:49:19.263Z,854.73
2022-08-26T08:50:19.294Z,854.72
2022-08-26T08:51:19.246Z,854.75
2022-08-26T08:52:19.263Z,854.71
2022-08-26T08:53:19.224Z,854.76
2022-08-26T08:54:19.217Z,854.73
2022-08-26T08:55:19.213Z,854.76
2022-08-26T08:56:19.211Z,854.72
2022-08-26T08:57:19.221Z,854.72
2022-08-26T08:58:19.752Z,854.72
2022-08-26T08:59:19.190Z,854.69
2022-08-26T09:00:19.260Z,854.68
2022-08-26T09:01:19.217Z,854.68
2022-08-26T09:02:19.224Z,854.68
2022-08-26T09:03:19.170Z,854.68
2022-08-26T09:04:19.110Z,854.66
2022-08-26T09:05:19.098Z,854.67
2022-08-26T09:06:19.084Z,854.66
2022-08-26T09:07:19.081Z,854.63
2022-08-26T09:08:19.892Z,854.64
2022-08-26T09:09:19.085Z,854.60
2022-08-26T09:10:19.050Z,854.60
2022-08-26T09:11:19.036Z,854.62
2022-08-26T09:12:19.031Z,854.60
2022-08-26T09:13:25.394Z,854.60
2022-08-26T09:14:20.009Z,854.61
2022-08-26T09:15:18.991Z,854.61
2022-08-26T09:16:20.442Z,854.59
2022-08-26T09:17:18.978Z,854.61
2022-08-26T09:18:18.960Z,854.60
2022-08-26T09:19:19.311Z,854.62
2022-08-26T09:20:19.002Z,854.60
2022-08-26T09:21:18.938Z,854.57
2022-08-26T09:22:18.966Z,854.60
2022-08-26T09:23:19.005Z,854.58
2022-08-26T09:24:18.906Z,854.60
2022-08-26T09:25:18.904Z,854.55
2022-08-26T09:26:18.936Z,854.50
2022-08-26T09:27:18.875Z,854.52
2022-08-26T09:28:18.850Z,854.56
2022-08-26T09:30:18.897Z,854.56
2022-08-26T09:31:18.949Z,854.56
2022-08-26T09:32:18.806Z,854.55
2022-08-26T09:33:18.798Z,854.55
2022-08-26T09:34:19.047Z,854.51
2022-08-26T09:35:18.782Z,854.56
2022-08-26T09:36:18.767Z,854.51
2022-08-26T09:37:18.786Z,854.52
2022-08-26T09:38:18.786Z,854.51
2022-08-26T09:39:18.734Z,854.54
2022-08-26T09:40:18.845Z,854.50
2022-08-26T09:41:18.713Z,854.53
2022-08-26T09:42:18.700Z,854.51
2022-08-26T09:43:22.036Z,854.48
2022-08-26T09:44:18.678Z,854.45
2022-08-26T09:45:18.664Z,854.46
2022-08-26T09:46:18.870Z,854.44
2022-08-26T09:47:18.640Z,854.39
2022-08-26T09:48:18.628Z,854.42
2022-08-26T09:49:18.637Z,854.40
2022-08-26T09:50:18.608Z,854.45
2022-08-26T09:51:18.595Z,854.37
2022-08-26T09:52:18.598Z,854.39
2022-08-26T09:53:20.956Z,854.34
2022-08-26T09:54:20.708Z,854.39
2022-08-26T09:55:18.563Z,854.40
2022-08-26T09:56:18.543Z,854.34
2022-08-26T09:57:18.546Z,854.35
2022-08-26T09:58:18.515Z,854.33
2022-08-26T09:59:18.935Z,854.34
2022-08-26T10:00:18.497Z,854.34
2022-08-26T10:01:19.439Z,854.30
2022-08-26T10:02:18.470Z,854.28
2022-08-26T10:03:18.478Z,854.30
2022-08-26T10:04:18.606Z,854.31
2022-08-26T10:05:18.448Z,854.28
2022-08-26T10:06:20.959Z,854.23
2022-08-26T10:07:18.436Z,854.26
2022-08-26T10:08:18.410Z,854.24
2022-08-26T10:09:18.397Z,854.20
2022-08-26T10:10:18.401Z,854.24
2022-08-26T10:11:18.375Z,854.22
2022-08-26T10:12:18.374Z,854.19
2022-08-26T10:13:18.369Z,854.21
2022-08-26T10:14:20.156Z,854.21
2022-08-26T10:15:18.333Z,854.17
2022-08-26T10:16:18.423Z,854.17
2022-08-26T10:17:18.309Z,854.11
2022-08-26T10:18:18.304Z,854.10
2022-08-26T10:19:18.304Z,854.08
2022-08-26T10:20:23.269Z,854.08
2022-08-26T10:21:19.312Z,854.04
2022-08-26T10:22:18.260Z,854.01
2022-08-26T10:23:18.243Z,854.06
2022-08-26T10:24:18.231Z,854.06
2022-08-26T10:25:18.219Z,854.05
2022-08-26T10:26:18.228Z,853.93
2022-08-26T10:27:18.209Z,853.98
2022-08-26T10:28:18.207Z,853.93
2022-08-26T10:29:18.189Z,853.93
2022-08-26T10:30:18.168Z,853.94
2022-08-26T10:31:18.208Z,853.98
2022-08-26T10:32:18.226Z,853.94
2022-08-26T10:33:18.333Z,853.92
2022-08-26T10:34:18.125Z,853.95
2022-08-26T10:35:18.115Z,853.92
2022-08-26T10:36:20.296Z,853.92
2022-08-26T10:37:18.101Z,853.92
2022-08-26T10:38:18.095Z,853.94
2022-08-26T10:39:18.063Z,853.86
2022-08-26T10:40:18.107Z,853.85
2022-08-26T10:41:18.216Z,853.92
2022-08-26T10:42:18.042Z,853.89
2022-08-26T10:43:18.070Z,853.87
2022-08-26T10:44:18.013Z,853.87
2022-08-26T10:45:18.052Z,853.78
2022-08-26T10:46:18.046Z,853.79
2022-08-26T10:47:17.980Z,853.82
2022-08-26T10:48:17.998Z,853.87
2022-08-26T10:49:17.967Z,853.85
2022-08-26T10:50:18.931Z,853.82
2022-08-26T10:51:17.949Z,853.81
2022-08-26T10:52:17.936Z,853.71
2022-08-26T10:53:17.918Z,853.72
2022-08-26T10:54:17.907Z,853.72
2022-08-26T10:55:17.935Z,853.70
2022-08-26T10:56:19.215Z,853.67
2022-08-26T10:57:17.889Z,853.67
2022-08-26T10:58:26.509Z,853.62
2022-08-26T10:59:18.860Z,853.58
2022-08-26T11:00:17.854Z,853.58
2022-08-26T11:01:17.868Z,853.62
2022-08-26T11:02:24.191Z,853.61
2022-08-26T11:03:22.457Z,853.60
2022-08-26T11:04:17.894Z,853.62
2022-08-26T11:05:17.792Z,853.61
2022-08-26T11:06:17.784Z,853.57
2022-08-26T11:07:17.780Z,853.60
2022-08-26T11:08:17.770Z,853.61
2022-08-26T11:09:17.752Z,853.60
2022-08-26T11:10:18.742Z,853.59
2022-08-26T11:11:17.772Z,853.56
2022-08-26T11:12:17.718Z,853.54
2022-08-26T11:13:17.725Z,853.49
2022-08-26T11:14:17.693Z,853.53
2022-08-26T11:15:18.688Z,853.48
2022-08-26T11:16:18.698Z,853.49
2022-08-26T11:17:17.681Z,853.51
2022-08-26T11:18:17.666Z,853.44
2022-08-26T11:19:17.638Z,853.46
2022-08-26T11:20:18.630Z,853.41
2022-08-26T11:21:17.625Z,853.43
2022-08-26T11:22:17.610Z,853.40
2022-08-26T11:23:17.620Z,853.40
2022-08-26T11:24:17.697Z,853.45
2022-08-26T11:25:18.253Z,853.39
2022-08-26T11:26:35.962Z,853.42
2022-08-26T11:27:18.556Z,853.43
2022-08-26T11:28:17.548Z,853.40
2022-08-26T11:29:17.538Z,853.38
2022-08-26T11:30:18.545Z,853.41
2022-08-26T11:31:17.610Z,853.37
2022-08-26T11:32:17.504Z,853.36
2022-08-26T11:33:17.494Z,853.40
2022-08-26T11:34:17.497Z,853.42
2022-08-26T11:35:17.622Z,853.40
2022-08-26T11:36:17.460Z,853.40
2022-08-26T11:37:17.511Z,853.35
2022-08-26T11:38:17.449Z,853.36
2022-08-26T11:39:17.425Z,853.33
2022-08-26T11:40:17.469Z,853.31
2022-08-26T11:41:17.409Z,853.31
2022-08-26T11:42:20.165Z,853.29
2022-08-26T11:43:17.382Z,853.26
2022-08-26T11:44:17.404Z,853.31
2022-08-26T11:45:17.367Z,853.25
2022-08-26T11:46:17.396Z,853.28
2022-08-26T11:47:17.343Z,853.26
2022-08-26T11:48:17.329Z,853.25
2022-08-26T11:49:17.326Z,853.25
2022-08-26T11:50:17.361Z,853.21
2022-08-26T11:51:17.307Z,853.16
2022-08-26T11:52:17.351Z,853.14
2022-08-26T11:53:17.283Z,853.09
2022-08-26T11:54:17.267Z,853.13
2022-08-26T11:55:19.144Z,853.15
2022-08-26T11:56:17.251Z,853.17
2022-08-26T11:57:17.266Z,853.06
2022-08-26T11:58:17.224Z,853.05
2022-08-26T11:59:17.220Z,853.05
2022-08-26T12:00:22.205Z,853.04
2022-08-26T12:01:18.213Z,853.02
2022-08-26T12:02:17.849Z,853.07
2022-08-26T12:03:17.228Z,853.07
2022-08-26T12:04:17.285Z,853.05
2022-08-26T12:05:17.154Z,853.04
2022-08-26T12:06:17.267Z,853.02
2022-08-26T12:07:17.148Z,853.03
2022-08-26T12:08:18.118Z,853.04
2022-08-26T12:09:17.111Z,852.99
2022-08-26T12:10:17.111Z,853.01
2022-08-26T12:11:17.085Z,852.95
2022-08-26T12:12:17.077Z,852.95
2022-08-26T12:13:17.172Z,852.96
2022-08-26T12:14:17.054Z,852.88
2022-08-26T12:15:17.045Z,852.93
2022-08-26T12:16:17.091Z,852.94
2022-08-26T12:17:17.027Z,852.92
2022-08-26T12:18:17.011Z,852.87
2022-08-26T12:19:17.018Z,852.85
2022-08-26T12:20:16.996Z,852.87
2022-08-26T12:21:16.983Z,852.80
2022-08-26T12:22:16.995Z,852.82
2022-08-26T12:23:16.962Z,852.80
2022-08-26T12:24:16.953Z,852.79
2022-08-26T12:25:17.112Z,852.76
2022-08-26T12:26:16.930Z,852.76
2022-08-26T12:27:16.916Z,852.71
2022-08-26T12:28:17.548Z,852.72
2022-08-26T12:29:26.595Z,852.73